Miyazaki, Japan
Current Conditions -  °F | °C
As of 9:00 PM on Sunday 21 Dec 2014 (Local Time) from RJFM Reporting Station
Scattered Clouds Scattered Clouds  
Wind Chill: 35°   Ceiling: Unl
Heat Index: 41°   Visibility: 6mi
Dew Point: 32°   Wind: 9mph
Humidity: 70%   Direction: 280°W
Pressure: 30.09"   Gusts: NA
Location:  31.91°N, 131.42°E
Report Text: RJFM 211200Z 28008KT 9999 FEW030 SCT090 05/00 Q1019
Loading
Personal Weather Stations






























Interactive Weather Map New forecast layout! Learn more

10-Day Weather Forecast

Advertisements
Track Severe Weather on mobile